Terminal Aerodrome Forecast
Issued by NWS

Home | Current Version | Previous Version | Text Only | Print | Product List | Glossary On
Versions: 1 2 3 4 5 6 7 8 9 10 11 12 13 14 15 16 17 18 19 20 21
600
FTUS41 KOKX 120520
TAFHPN
TAF
KHPN 120520Z 1206/1306 29016G26KT P6SM SKC
     FM120900 29010KT P6SM SKC
     FM121600 24008KT P6SM FEW040 BKN130
     FM130300 27004KT P6SM FEW035 BKN040
      AMD NOT SKED=

USA.gov is the U.S. government's official web portal to all federal, state and local government web resources and services.